createdAt,value
2018-12-17T00:00:48.940Z,82.06
2018-12-17T00:03:18.075Z,81.95
2018-12-17T00:05:51.936Z,82.26
2018-12-17T00:08:20.408Z,82.07
2018-12-17T00:10:51.164Z,82.55
2018-12-17T00:13:19.922Z,82.54
2018-12-17T00:15:54.827Z,82.45
2018-12-17T00:18:30.724Z,82.04
2018-12-17T00:21:01.570Z,82.19
2018-12-17T00:23:49.442Z,81.93
2018-12-17T00:26:36.173Z,81.66
2018-12-17T00:29:05.537Z,81.90
2018-12-17T00:31:54.938Z,82.16
2018-12-17T00:34:28.028Z,81.82
2018-12-17T00:36:57.896Z,81.93
2018-12-17T00:39:26.383Z,82.42
2018-12-17T00:41:57.159Z,82.29
2018-12-17T00:44:27.497Z,82.54
2018-12-17T00:47:12.694Z,82.33
2018-12-17T00:49:44.583Z,82.32
2018-12-17T00:55:07.727Z,82.15
2018-12-17T00:57:36.422Z,82.24
2018-12-17T01:00:07.578Z,82.09
2018-12-17T01:02:40.633Z,82.26
2018-12-17T01:05:09.114Z,82.25
2018-12-17T01:07:38.217Z,82.22
2018-12-17T01:10:07.763Z,82.31
2018-12-17T01:12:55.468Z,82.06
2018-12-17T01:15:23.990Z,82.20
2018-12-17T01:18:01.694Z,82.33
2018-12-17T01:20:30.160Z,82.26
2018-12-17T01:22:58.579Z,82.35
2018-12-17T01:25:27.775Z,82.28
2018-12-17T01:27:57.427Z,82.49
2018-12-17T01:30:31.177Z,82.51
2018-12-17T01:33:01.363Z,82.46
2018-12-17T01:38:26.047Z,81.97
2018-12-17T01:40:56.150Z,81.44
2018-12-17T01:43:24.831Z,81.67
2018-12-17T01:45:53.304Z,81.43
2018-12-17T01:48:21.731Z,81.15
2018-12-17T01:50:50.325Z,80.93
2018-12-17T01:53:19.086Z,80.90
2018-12-17T01:55:47.601Z,80.95
2018-12-17T01:58:16.775Z,81.18
2018-12-17T02:00:45.278Z,81.12
2018-12-17T02:03:19.068Z,81.36
2018-12-17T02:05:48.200Z,81.33
2018-12-17T02:08:17.353Z,81.84
2018-12-17T02:10:46.246Z,81.64
2018-12-17T02:13:19.867Z,81.65
2018-12-17T02:15:48.366Z,81.41
2018-12-17T02:18:18.733Z,81.62
2018-12-17T02:20:48.494Z,81.38
2018-12-17T02:23:18.186Z,81.42
2018-12-17T02:25:51.875Z,81.22
2018-12-17T02:28:35.962Z,81.48
2018-12-17T02:31:02.382Z,81.26
2018-12-17T02:33:31.624Z,80.98
2018-12-17T02:36:00.654Z,81.11
2018-12-17T02:38:29.404Z,81.12
2018-12-17T02:40:58.661Z,80.74
2018-12-17T02:46:24.280Z,81.07
2018-12-17T02:48:52.806Z,81.22
2018-12-17T02:51:25.604Z,81.49
2018-12-17T02:53:58.725Z,81.18
2018-12-17T02:56:30.514Z,80.92
2018-12-17T02:58:59.031Z,81.25
2018-12-17T03:01:31.416Z,81.41
2018-12-17T03:04:13.454Z,81.42
2018-12-17T03:06:53.292Z,81.86
2018-12-17T03:09:34.460Z,81.23
2018-12-17T03:12:09.775Z,81.41
2018-12-17T03:14:38.480Z,81.01
2018-12-17T03:17:06.920Z,81.14
2018-12-17T03:19:53.544Z,80.89
2018-12-17T03:22:24.806Z,81.33
2018-12-17T03:24:58.727Z,81.51
2018-12-17T03:27:32.928Z,81.59
2018-12-17T03:30:04.377Z,82.00
2018-12-17T03:32:40.377Z,81.78
2018-12-17T03:35:08.846Z,81.71
2018-12-17T03:37:43.030Z,81.26
2018-12-17T03:43:05.505Z,80.92
2018-12-17T03:45:34.767Z,80.69
2018-12-17T03:48:03.206Z,80.83
2018-12-17T03:50:31.643Z,80.57
2018-12-17T03:53:00.149Z,81.11
2018-12-17T03:55:33.969Z,81.27
2018-12-17T03:58:02.456Z,81.40
2018-12-17T04:00:32.812Z,81.23
2018-12-17T04:03:06.716Z,81.33
2018-12-17T04:05:52.454Z,81.33
2018-12-17T04:08:20.959Z,81.07
2018-12-17T04:10:49.662Z,81.89
2018-12-17T04:13:18.103Z,81.67
2018-12-17T04:15:46.825Z,81.60
2018-12-17T04:18:16.487Z,81.75
2018-12-17T04:20:44.994Z,81.46
2018-12-17T04:23:13.509Z,81.76
2018-12-17T04:25:47.331Z,81.75
2018-12-17T04:28:21.302Z,81.47
2018-12-17T04:30:54.979Z,82.04
2018-12-17T04:33:26.277Z,81.79
2018-12-17T04:35:54.939Z,81.31
2018-12-17T04:38:23.549Z,81.12
2018-12-17T04:40:52.039Z,81.32
2018-12-17T04:43:22.566Z,80.72
2018-12-17T04:45:55.918Z,81.74
2018-12-17T04:48:24.648Z,81.83
2018-12-17T04:50:58.499Z,81.71
2018-12-17T04:53:27.683Z,82.17
2018-12-17T04:55:56.128Z,82.06
2018-12-17T04:58:28.036Z,82.06
2018-12-17T05:01:01.811Z,81.83
2018-12-17T05:03:37.041Z,82.22
2018-12-17T05:06:05.427Z,81.66
2018-12-17T05:12:03.153Z,81.85
2018-12-17T05:14:40.290Z,82.07
2018-12-17T05:17:10.176Z,82.33
2018-12-17T05:19:39.670Z,82.46
2018-12-17T05:22:18.929Z,81.85
2018-12-17T05:24:50.409Z,82.02
2018-12-17T05:27:41.624Z,81.39
2018-12-17T05:30:28.718Z,81.49
2018-12-17T05:32:57.527Z,81.22
2018-12-17T05:35:26.887Z,81.77
2018-12-17T05:38:00.723Z,80.99
2018-12-17T05:40:30.681Z,81.43
2018-12-17T05:43:04.472Z,81.12
2018-12-17T05:45:33.701Z,81.38
2018-12-17T05:48:04.912Z,81.09
2018-12-17T05:50:35.264Z,80.56
2018-12-17T05:53:03.720Z,80.82
2018-12-17T05:58:28.288Z,81.12
2018-12-17T06:00:57.358Z,81.15
2018-12-17T06:03:44.052Z,81.51
2018-12-17T06:06:12.540Z,81.69
2018-12-17T06:08:41.244Z,80.99
2018-12-17T06:11:10.156Z,81.35
2018-12-17T06:13:38.623Z,80.71
2018-12-17T06:16:13.264Z,80.39
2018-12-17T06:18:41.863Z,80.80
2018-12-17T06:21:16.989Z,80.77
2018-12-17T06:23:49.635Z,81.10
2018-12-17T06:26:18.581Z,81.52
2018-12-17T06:28:48.604Z,81.71
2018-12-17T06:31:22.399Z,81.60
2018-12-17T06:33:52.571Z,81.76
2018-12-17T06:36:43.506Z,81.62
2018-12-17T06:39:12.704Z,81.37
2018-12-17T06:41:41.159Z,81.37
2018-12-17T06:44:09.620Z,81.77
2018-12-17T06:46:45.723Z,81.57
2018-12-17T06:49:15.053Z,81.30
2018-12-17T06:51:45.217Z,80.88
2018-12-17T06:54:14.927Z,84.85
2018-12-17T06:56:43.412Z,90.06
2018-12-17T06:59:11.827Z,85.08
2018-12-17T07:01:40.712Z,80.03
2018-12-17T07:04:09.213Z,76.37
2018-12-17T07:06:38.405Z,73.86
2018-12-17T07:09:07.865Z,72.11
2018-12-17T07:11:36.387Z,69.77
2018-12-17T07:14:05.082Z,70.65
2018-12-17T07:16:35.149Z,72.05
2018-12-17T07:19:07.739Z,73.37
2018-12-17T07:21:37.943Z,74.62
2018-12-17T07:24:08.472Z,75.51
2018-12-17T07:26:38.224Z,75.16
2018-12-17T07:29:07.392Z,76.52
2018-12-17T07:31:58.389Z,76.51
2018-12-17T07:34:27.692Z,77.08
2018-12-17T07:36:56.998Z,77.27
2018-12-17T07:39:29.352Z,77.71
2018-12-17T07:44:52.480Z,78.09
2018-12-17T07:47:20.939Z,77.78
2018-12-17T07:49:49.389Z,77.61
2018-12-17T07:52:18.321Z,78.02
2018-12-17T07:54:47.947Z,77.92
2018-12-17T07:57:21.855Z,77.64
2018-12-17T08:02:59.891Z,77.25
2018-12-17T08:05:28.394Z,76.89
2018-12-17T08:08:00.422Z,78.56
2018-12-17T08:10:28.830Z,76.32
2018-12-17T08:13:04.796Z,75.49
2018-12-17T08:15:40.372Z,74.51
2018-12-17T08:18:20.483Z,74.04
2018-12-17T08:20:49.788Z,73.23
2018-12-17T08:23:18.489Z,72.56
2018-12-17T08:25:46.963Z,72.09
2018-12-17T08:28:15.428Z,72.33
2018-12-17T08:30:43.858Z,71.45
2018-12-17T08:33:12.610Z,71.81
2018-12-17T08:35:42.777Z,72.13
2018-12-17T08:38:11.296Z,71.76
2018-12-17T08:40:39.787Z,71.21
2018-12-17T08:43:08.242Z,71.17
2018-12-17T08:45:36.687Z,71.01
2018-12-17T08:48:05.202Z,71.39
2018-12-17T08:50:33.642Z,71.31
2018-12-17T08:53:02.085Z,71.29
2018-12-17T08:55:30.749Z,71.74
2018-12-17T08:57:59.428Z,71.53
2018-12-17T09:00:27.877Z,71.56
2018-12-17T09:02:56.331Z,71.82
2018-12-17T09:05:27.755Z,71.75
2018-12-17T09:07:56.255Z,71.95
2018-12-17T09:10:24.755Z,71.56
2018-12-17T09:12:53.176Z,71.31
2018-12-17T09:15:21.717Z,71.59
2018-12-17T09:17:50.415Z,70.78
2018-12-17T09:20:18.915Z,70.16
2018-12-17T09:22:47.359Z,69.97
2018-12-17T09:25:15.901Z,69.53
2018-12-17T09:27:44.336Z,69.08
2018-12-17T09:30:18.321Z,68.76
2018-12-17T09:32:43.260Z,68.68
2018-12-17T09:35:11.746Z,68.51
2018-12-17T09:37:40.224Z,68.06
2018-12-17T09:40:08.775Z,67.99
2018-12-17T09:42:37.228Z,67.91
2018-12-17T09:45:06.866Z,67.45
2018-12-17T09:47:35.330Z,66.68
2018-12-17T09:50:05.082Z,67.04
2018-12-17T09:52:33.613Z,66.31
2018-12-17T09:55:02.457Z,66.26
2018-12-17T09:57:31.358Z,66.31
2018-12-17T10:00:00.227Z,66.09
2018-12-17T10:02:29.145Z,66.78
2018-12-17T10:04:57.861Z,67.06
2018-12-17T10:07:30.473Z,66.76
2018-12-17T10:09:56.915Z,66.26
2018-12-17T10:12:25.344Z,66.04
2018-12-17T10:14:53.830Z,65.60
2018-12-17T10:17:22.341Z,65.63
2018-12-17T10:19:50.852Z,65.09
2018-12-17T10:22:19.374Z,64.48
2018-12-17T10:24:47.797Z,64.18
2018-12-17T10:27:16.499Z,63.92
2018-12-17T10:29:45.135Z,63.38
2018-12-17T10:32:13.554Z,63.06
2018-12-17T10:34:42.154Z,63.58
2018-12-17T10:37:11.385Z,63.43
2018-12-17T10:39:39.828Z,63.99
2018-12-17T10:42:08.281Z,64.21
2018-12-17T10:44:36.737Z,64.35
2018-12-17T10:47:05.222Z,64.22
2018-12-17T10:49:33.700Z,63.58
2018-12-17T10:52:02.163Z,63.51
2018-12-17T10:54:31.311Z,63.37
2018-12-17T10:56:59.987Z,63.40
2018-12-17T10:59:28.505Z,63.18
2018-12-17T11:02:03.832Z,63.19
2018-12-17T11:04:34.350Z,63.30
2018-12-17T11:07:02.934Z,63.36
2018-12-17T11:09:31.341Z,62.77
2018-12-17T11:11:59.780Z,63.28
2018-12-17T11:14:28.224Z,63.30
2018-12-17T11:16:56.652Z,63.45
2018-12-17T11:19:25.142Z,63.37
2018-12-17T11:21:53.589Z,63.43
2018-12-17T11:24:22.048Z,63.65
2018-12-17T11:26:50.461Z,63.73
2018-12-17T11:29:18.903Z,63.47
2018-12-17T11:31:47.349Z,63.69
2018-12-17T11:34:15.827Z,63.78
2018-12-17T11:36:44.256Z,63.60
2018-12-17T11:39:12.684Z,63.53
2018-12-17T11:41:41.166Z,64.01
2018-12-17T11:44:09.612Z,64.25
2018-12-17T11:46:38.047Z,64.56
2018-12-17T11:49:06.530Z,64.61
2018-12-17T11:51:34.980Z,64.52
2018-12-17T11:54:03.419Z,64.73
2018-12-17T11:56:49.636Z,65.04
2018-12-17T11:59:18.064Z,65.31
2018-12-17T12:01:46.883Z,65.67
2018-12-17T12:04:15.356Z,65.46
2018-12-17T12:06:43.791Z,65.60
2018-12-17T12:09:14.249Z,65.80
2018-12-17T12:11:42.758Z,65.70
2018-12-17T12:14:11.207Z,65.57
2018-12-17T12:16:39.620Z,65.69
2018-12-17T12:19:08.098Z,65.59
2018-12-17T12:21:36.542Z,65.39
2018-12-17T12:24:05.004Z,65.14
2018-12-17T12:26:33.508Z,64.93
2018-12-17T12:29:01.973Z,64.70
2018-12-17T12:31:30.404Z,64.36
2018-12-17T12:33:58.857Z,64.44
2018-12-17T12:36:27.308Z,64.62
2018-12-17T12:38:55.728Z,64.63
2018-12-17T12:41:24.180Z,64.64
2018-12-17T12:43:52.626Z,65.03
2018-12-17T12:46:21.070Z,65.39
2018-12-17T12:48:49.544Z,65.56
2018-12-17T12:51:18.052Z,65.70
2018-12-17T12:53:46.480Z,65.71
2018-12-17T12:56:15.043Z,65.80
2018-12-17T12:58:43.464Z,66.07
2018-12-17T13:01:11.892Z,66.07
2018-12-17T13:03:40.360Z,66.15
2018-12-17T13:06:08.793Z,66.56
2018-12-17T13:08:37.376Z,67.08
2018-12-17T13:11:05.859Z,67.06
2018-12-17T13:13:34.324Z,67.28
2018-12-17T13:16:02.752Z,67.32
2018-12-17T13:18:31.232Z,67.23
2018-12-17T13:20:59.666Z,67.01
2018-12-17T13:23:28.136Z,67.14
2018-12-17T13:25:57.559Z,67.44
2018-12-17T13:28:25.991Z,67.95
2018-12-17T13:30:54.420Z,68.08
2018-12-17T13:33:22.921Z,68.35
2018-12-17T13:35:51.372Z,68.41
2018-12-17T13:38:19.842Z,68.34
2018-12-17T13:40:48.284Z,68.55
2018-12-17T13:43:16.728Z,68.71
2018-12-17T13:45:45.187Z,68.69
2018-12-17T13:48:14.169Z,69.15
2018-12-17T13:50:42.716Z,69.40
2018-12-17T13:53:16.644Z,69.11
2018-12-17T13:55:45.100Z,69.10
2018-12-17T13:58:13.524Z,69.28
2018-12-17T14:00:42.011Z,69.68
2018-12-17T14:03:10.464Z,69.49
2018-12-17T14:05:39.552Z,69.41
2018-12-17T14:08:08.016Z,69.56
2018-12-17T14:10:42.208Z,69.76
2018-12-17T14:13:10.700Z,70.01
2018-12-17T14:15:44.713Z,70.17
2018-12-17T14:18:18.785Z,70.27
2018-12-17T14:20:52.844Z,70.86
2018-12-17T14:23:21.321Z,70.84
2018-12-17T14:25:49.756Z,71.18
2018-12-17T14:28:18.349Z,71.45
2018-12-17T14:30:46.813Z,71.55
2018-12-17T14:33:15.245Z,71.70
2018-12-17T14:35:49.164Z,72.00
2018-12-17T14:38:17.601Z,72.18
2018-12-17T14:40:46.024Z,72.40
2018-12-17T14:43:14.507Z,72.45
2018-12-17T14:45:42.948Z,72.83
2018-12-17T14:48:11.433Z,73.12
2018-12-17T14:50:40.021Z,73.37
2018-12-17T14:53:08.480Z,73.67
2018-12-17T14:55:36.989Z,74.05
2018-12-17T14:58:05.627Z,74.07
2018-12-17T15:00:34.055Z,74.28
2018-12-17T15:03:02.504Z,74.58
2018-12-17T15:05:31.812Z,74.95
2018-12-17T15:08:00.332Z,75.15
2018-12-17T15:10:28.789Z,75.43
2018-12-17T15:12:57.244Z,75.71
2018-12-17T15:15:25.689Z,75.73
2018-12-17T15:17:54.148Z,76.02
2018-12-17T15:20:22.645Z,76.35
2018-12-17T15:22:51.093Z,76.59
2018-12-17T15:25:19.552Z,76.70
2018-12-17T15:27:48.063Z,76.75
2018-12-17T15:30:16.520Z,77.11
2018-12-17T15:32:44.940Z,77.32
2018-12-17T15:35:13.398Z,77.89
2018-12-17T15:37:41.859Z,78.23
2018-12-17T15:40:10.324Z,78.27
2018-12-17T15:42:41.001Z,78.39
2018-12-17T15:45:09.288Z,78.84
2018-12-17T15:47:37.746Z,78.64
2018-12-17T15:50:06.472Z,79.54
2018-12-17T15:52:34.940Z,79.34
2018-12-17T15:55:03.794Z,79.39
2018-12-17T15:57:32.329Z,79.26
2018-12-17T16:00:00.891Z,79.84
2018-12-17T16:02:29.734Z,79.91
2018-12-17T16:04:58.251Z,79.98
2018-12-17T16:07:27.367Z,79.97
2018-12-17T16:09:55.888Z,80.50
2018-12-17T16:12:24.412Z,80.74
2018-12-17T16:14:52.877Z,80.38
2018-12-17T16:17:21.411Z,80.39
2018-12-17T16:19:49.925Z,80.29
2018-12-17T16:22:18.527Z,80.45
2018-12-17T16:24:48.440Z,80.58
2018-12-17T16:27:19.408Z,80.53
2018-12-17T16:29:51.705Z,80.46
2018-12-17T16:32:20.246Z,80.58
2018-12-17T16:34:48.801Z,80.61
2018-12-17T16:37:18.444Z,80.42
2018-12-17T16:39:47.028Z,80.86
2018-12-17T16:42:15.899Z,81.73
2018-12-17T16:44:44.696Z,82.06
2018-12-17T16:47:13.203Z,82.02
2018-12-17T16:49:42.009Z,82.17
2018-12-17T16:52:10.541Z,82.40
2018-12-17T16:54:40.122Z,82.70
2018-12-17T16:57:09.247Z,82.43
2018-12-17T16:59:37.825Z,81.86
2018-12-17T17:02:06.454Z,81.36
2018-12-17T17:04:35.062Z,81.98
2018-12-17T17:07:03.636Z,82.45
2018-12-17T17:09:32.515Z,82.75
2018-12-17T17:12:01.153Z,83.16
2018-12-17T17:14:29.763Z,83.18
2018-12-17T17:16:58.376Z,83.58
2018-12-17T17:19:26.938Z,83.58
2018-12-17T17:21:55.487Z,83.74
2018-12-17T17:24:24.105Z,82.98
2018-12-17T17:26:53.281Z,82.70
2018-12-17T17:29:21.796Z,82.61
2018-12-17T17:31:50.360Z,83.38
2018-12-17T17:34:19.008Z,83.68
2018-12-17T17:36:47.594Z,83.90
2018-12-17T17:39:16.131Z,83.77
2018-12-17T17:41:44.886Z,83.92
2018-12-17T17:44:13.448Z,84.00
2018-12-17T17:46:41.986Z,84.92
2018-12-17T17:49:10.588Z,84.61
2018-12-17T17:51:39.173Z,84.38
2018-12-17T17:54:07.732Z,84.72
2018-12-17T17:56:36.277Z,84.11
2018-12-17T17:59:05.410Z,84.65
2018-12-17T18:01:33.997Z,83.94
2018-12-17T18:04:03.062Z,86.89
2018-12-17T18:06:31.844Z,88.54
2018-12-17T18:09:00.436Z,86.55
2018-12-17T18:11:29.195Z,81.65
2018-12-17T18:13:57.750Z,77.22
2018-12-17T18:16:26.324Z,76.54
2018-12-17T18:18:54.884Z,77.10
2018-12-17T18:21:23.425Z,76.68
2018-12-17T18:23:52.133Z,78.10
2018-12-17T18:26:20.692Z,77.56
2018-12-17T18:28:49.329Z,77.52
2018-12-17T18:31:17.873Z,77.39
2018-12-17T18:33:46.423Z,77.69
2018-12-17T18:36:15.000Z,78.12
2018-12-17T18:38:43.707Z,79.07
2018-12-17T18:41:12.761Z,80.60
2018-12-17T18:43:42.771Z,81.81
2018-12-17T18:46:11.424Z,81.80
2018-12-17T18:48:40.178Z,80.01
2018-12-17T18:51:09.660Z,80.03
2018-12-17T18:53:38.284Z,79.77
2018-12-17T18:56:06.904Z,79.95
2018-12-17T18:58:35.734Z,80.40
2018-12-17T19:01:05.441Z,80.72
2018-12-17T19:03:35.068Z,80.76
2018-12-17T19:06:25.987Z,80.76
2018-12-17T19:08:57.492Z,80.79
2018-12-17T19:14:24.089Z,80.80
2018-12-17T19:16:52.712Z,81.44
2018-12-17T19:19:28.850Z,81.80
2018-12-17T19:24:52.777Z,82.42
2018-12-17T19:27:21.409Z,82.23
2018-12-17T19:32:46.886Z,81.96
2018-12-17T19:35:16.515Z,81.63
2018-12-17T19:38:05.626Z,82.26
2018-12-17T19:40:37.540Z,82.95
2018-12-17T19:43:07.246Z,83.28
2018-12-17T19:45:36.500Z,83.32
2018-12-17T19:48:05.598Z,83.25
2018-12-17T19:50:35.053Z,83.33
2018-12-17T19:53:04.167Z,83.59
2018-12-17T19:55:32.745Z,83.61
2018-12-17T19:58:01.419Z,82.73
2018-12-17T20:00:30.000Z,83.67
2018-12-17T20:03:13.750Z,83.80
2018-12-17T20:05:47.617Z,83.73
2018-12-17T20:08:18.835Z,83.69
2018-12-17T20:10:50.199Z,83.72
2018-12-17T20:13:22.626Z,83.49
2018-12-17T20:15:52.625Z,82.95
2018-12-17T20:18:22.167Z,82.33
2018-12-17T20:20:54.934Z,82.60
2018-12-17T20:23:35.435Z,82.30
2018-12-17T20:26:04.756Z,82.54
2018-12-17T20:28:35.151Z,82.36
2018-12-17T20:31:22.480Z,82.83
2018-12-17T20:33:51.771Z,83.99
2018-12-17T20:36:22.323Z,84.39
2018-12-17T20:38:56.770Z,83.92
2018-12-17T20:41:26.335Z,83.58
2018-12-17T20:43:55.890Z,83.31
2018-12-17T20:49:11.326Z,84.49
2018-12-17T20:51:40.917Z,82.76
2018-12-17T20:54:12.677Z,83.14
2018-12-17T20:56:43.631Z,84.17
2018-12-17T20:59:16.601Z,84.43
2018-12-17T21:02:03.878Z,84.03
2018-12-17T21:04:51.025Z,86.17
2018-12-17T21:07:22.861Z,86.96
2018-12-17T21:09:58.885Z,87.18
2018-12-17T21:12:29.831Z,87.79
2018-12-17T21:15:03.849Z,87.42
2018-12-17T21:17:49.741Z,85.93
2018-12-17T21:23:12.853Z,86.78
2018-12-17T21:25:41.427Z,86.36
2018-12-17T21:28:17.086Z,86.09
2018-12-17T21:30:48.906Z,85.94
2018-12-17T21:33:20.308Z,85.96
2018-12-17T21:35:51.201Z,85.40
2018-12-17T21:38:22.609Z,84.06
2018-12-17T21:40:52.886Z,83.54
2018-12-17T21:43:22.867Z,83.00
2018-12-17T21:46:11.673Z,83.47
2018-12-17T21:48:41.202Z,83.61
2018-12-17T21:51:10.069Z,83.22
2018-12-17T21:53:57.930Z,82.11
2018-12-17T21:56:32.505Z,84.14
2018-12-17T21:59:06.317Z,85.02
2018-12-17T22:01:42.804Z,85.13
2018-12-17T22:04:31.685Z,83.65
2018-12-17T22:07:00.509Z,83.68
2018-12-17T22:09:45.104Z,84.04
2018-12-17T22:12:14.865Z,85.33
2018-12-17T22:14:44.141Z,85.27
2018-12-17T22:17:17.957Z,84.77
2018-12-17T22:20:08.878Z,85.67
2018-12-17T22:22:42.724Z,85.07
2018-12-17T22:25:16.676Z,85.94
2018-12-17T22:27:50.485Z,85.77
2018-12-17T22:30:31.655Z,83.81
2018-12-17T22:33:00.117Z,82.97
2018-12-17T22:35:32.280Z,82.41
2018-12-17T22:38:06.087Z,82.61
2018-12-17T22:40:39.019Z,82.14
2018-12-17T22:43:12.880Z,82.10
2018-12-17T22:45:41.358Z,81.94
2018-12-17T22:48:28.946Z,82.86
2018-12-17T22:51:20.538Z,82.38
2018-12-17T22:53:53.895Z,82.69
2018-12-17T22:56:28.642Z,84.77
2018-12-17T22:58:57.565Z,84.35
2018-12-17T23:04:19.825Z,82.94
2018-12-17T23:06:54.259Z,82.59
2018-12-17T23:09:46.005Z,82.50
2018-12-17T23:12:32.803Z,81.91
2018-12-17T23:15:30.783Z,81.87
2018-12-17T23:18:10.304Z,82.32
2018-12-17T23:20:45.164Z,83.08
2018-12-17T23:23:16.331Z,82.89
2018-12-17T23:25:46.152Z,81.90
2018-12-17T23:28:17.097Z,82.20
2018-12-17T23:30:50.067Z,82.80
2018-12-17T23:33:19.602Z,83.37
2018-12-17T23:35:49.605Z,86.47
2018-12-17T23:41:12.233Z,84.87
2018-12-17T23:43:57.591Z,85.83
2018-12-17T23:46:26.598Z,85.70
2018-12-17T23:48:55.286Z,84.96
2018-12-17T23:51:23.751Z,84.39
2018-12-17T23:53:53.769Z,83.69
2018-12-17T23:59:16.055Z,82.41
